Time;durP1;ratioP1;P1;durP2;ratioP2;P2;SDS_P1;SDS_P2;PMS_P1;PMS_P2;Temp;Humidity;BMP_temperature;BMP_pressure;BME280_temperature;BME280_humidity;BME280_pressure;Samples;Min_cycle;Max_cycle;Signal;HPM_P1;HPM_P2
2022/03/23 00:01:40;;;;;;;14.77;11.23;;;;;;;;;;5063748;28;20241;-14
2022/03/23 00:04:07;;;;;;;14.95;10.70;;;;;;;;;;5069718;28;20332;-13
2022/03/23 00:06:34;;;;;;;12.75;10.30;;;;;;;;;;5069384;28;20312;-14
2022/03/23 00:09:01;;;;;;;14.52;9.50;;;;;;;;;;5063039;28;20230;-14
2022/03/23 00:11:28;;;;;;;14.68;9.98;;;;;;;;;;5069758;28;20600;-14
2022/03/23 00:13:55;;;;;;;14.82;11.10;;;;;;;;;;5064100;28;20242;-13
2022/03/23 00:16:22;;;;;;;12.82;10.30;;;;;;;;;;5069227;28;20245;-14
2022/03/23 00:18:49;;;;;;;16.65;10.52;;;;;;;;;;5066967;28;20236;-13
2022/03/23 00:21:16;;;;;;;12.43;9.82;;;;;;;;;;5063542;28;20248;-14
2022/03/23 00:23:43;;;;;;;15.55;10.73;;;;;;;;;;5062626;28;20319;-13
2022/03/23 00:26:10;;;;;;;14.60;10.25;;;;;;;;;;5069145;28;20225;-14
2022/03/23 00:28:37;;;;;;;16.13;10.32;;;;;;;;;;5071419;28;20106;-14
2022/03/23 00:31:04;;;;;;;16.55;11.32;;;;;;;;;;5081481;28;20473;-14
2022/03/23 00:33:35;;;;;;;42.20;11.65;;;;;;;;;;5080665;28;20435;-13
2022/03/23 00:36:03;;;;;;;22.52;10.93;;;;;;;;;;5071718;28;20319;-13
2022/03/23 00:38:30;;;;;;;20.45;11.48;;;;;;;;;;5071072;28;20240;-13
2022/03/23 00:40:58;;;;;;;15.65;10.35;;;;;;;;;;5071075;28;21083;-13
2022/03/23 00:43:25;;;;;;;23.08;12.05;;;;;;;;;;5071083;28;20230;-14
2022/03/23 00:45:51;;;;;;;20.58;11.30;;;;;;;;;;5069787;28;20236;-13
2022/03/23 00:48:18;;;;;;;19.33;11.38;;;;;;;;;;5071023;28;20233;-13
2022/03/23 00:50:46;;;;;;;14.75;10.27;;;;;;;;;;5071520;28;20257;-13
2022/03/23 00:53:13;;;;;;;14.95;10.32;;;;;;;;;;5070471;28;20234;-14
2022/03/23 00:55:40;;;;;;;16.88;10.90;;;;;;;;;;5070475;28;20236;-13
2022/03/23 00:58:07;;;;;;;12.27;10.07;;;;;;;;;;5065295;28;20618;-13
2022/03/23 01:00:34;;;;;;;19.80;11.00;;;;;;;;;;5073160;28;20237;-13
2022/03/23 01:03:02;;;;;;;16.27;9.98;;;;;;;;;;5072877;28;20230;-13
2022/03/23 01:05:29;;;;;;;18.52;9.90;;;;;;;;;;5072904;28;21051;-13
2022/03/23 01:07:56;;;;;;;19.27;9.85;;;;;;;;;;5069680;28;20369;-13
2022/03/23 01:10:24;;;;;;;12.57;9.93;;;;;;;;;;5072358;28;20233;-13
2022/03/23 01:12:51;;;;;;;13.35;10.10;;;;;;;;;;5070775;28;20222;-14
2022/03/23 01:15:19;;;;;;;15.60;10.63;;;;;;;;;;5073265;28;20237;-14
2022/03/23 01:17:46;;;;;;;19.70;10.27;;;;;;;;;;5072325;28;20308;-14
2022/03/23 01:20:14;;;;;;;16.75;10.13;;;;;;;;;;5073442;28;20998;-14
2022/03/23 01:22:41;;;;;;;15.18;10.45;;;;;;;;;;5069573;28;20245;-14
2022/03/23 01:25:10;;;;;;;14.45;10.07;;;;;;;;;;5070936;28;20708;-14
2022/03/23 01:27:37;;;;;;;13.35;10.52;;;;;;;;;;5072848;28;20698;-14
2022/03/23 01:30:05;;;;;;;13.73;10.15;;;;;;;;;;5071102;28;20255;-13
2022/03/23 01:32:32;;;;;;;14.60;10.57;;;;;;;;;;5070711;28;20232;-14
2022/03/23 01:34:59;;;;;;;17.33;10.00;;;;;;;;;;5067000;28;20232;-14
2022/03/23 01:37:26;;;;;;;12.15;9.18;;;;;;;;;;5069972;28;20234;-14
2022/03/23 01:39:53;;;;;;;14.40;10.40;;;;;;;;;;5072311;28;20233;-13
2022/03/23 01:42:20;;;;;;;12.98;10.50;;;;;;;;;;5072324;28;20229;-14
2022/03/23 01:44:47;;;;;;;16.45;10.10;;;;;;;;;;5072371;28;20237;-13
2022/03/23 01:47:14;;;;;;;13.77;10.05;;;;;;;;;;5072293;28;20996;-13
2022/03/23 01:49:41;;;;;;;12.75;9.90;;;;;;;;;;5074213;28;20233;-13
2022/03/23 01:52:08;;;;;;;14.93;10.57;;;;;;;;;;5064627;28;20226;-13
2022/03/23 01:54:35;;;;;;;16.90;10.00;;;;;;;;;;5072358;28;20235;-14
2022/03/23 01:57:02;;;;;;;19.65;11.43;;;;;;;;;;5071540;28;20241;-13
2022/03/23 01:59:29;;;;;;;14.93;10.25;;;;;;;;;;5071675;28;20233;-14
2022/03/23 02:01:56;;;;;;;13.63;10.55;;;;;;;;;;5073097;28;20724;-13
2022/03/23 02:04:23;;;;;;;13.18;10.68;;;;;;;;;;5071643;28;20283;-13
2022/03/23 02:06:50;;;;;;;16.08;10.73;;;;;;;;;;5066880;28;20974;-14
2022/03/23 02:09:17;;;;;;;12.82;10.23;;;;;;;;;;5066359;28;20233;-14
2022/03/23 02:11:44;;;;;;;15.07;10.40;;;;;;;;;;5071637;28;20236;-14
2022/03/23 02:14:11;;;;;;;15.40;10.57;;;;;;;;;;5066580;28;20657;-13
2022/03/23 02:16:38;;;;;;;17.60;10.95;;;;;;;;;;5070643;28;20237;-13
2022/03/23 02:19:06;;;;;;;12.95;10.27;;;;;;;;;;5071826;28;20240;-14
2022/03/23 02:21:34;;;;;;;11.70;9.50;;;;;;;;;;5068967;28;20241;-13
2022/03/23 02:24:00;;;;;;;14.05;10.35;;;;;;;;;;5071742;28;20716;-14
2022/03/23 02:26:28;;;;;;;12.80;10.65;;;;;;;;;;5071780;28;20700;-13
2022/03/23 02:28:55;;;;;;;19.85;10.43;;;;;;;;;;5068460;28;20240;-13
2022/03/23 02:31:22;;;;;;;15.57;9.75;;;;;;;;;;5072685;28;20230;-14
2022/03/23 02:33:49;;;;;;;14.80;10.30;;;;;;;;;;5068606;28;21092;-14
2022/03/23 02:36:16;;;;;;;18.80;11.02;;;;;;;;;;5068689;28;20234;-13
2022/03/23 02:38:43;;;;;;;14.82;10.30;;;;;;;;;;5071527;28;20272;-13
2022/03/23 02:41:10;;;;;;;11.68;9.35;;;;;;;;;;5071118;28;20238;-13
2022/03/23 02:43:37;;;;;;;14.95;10.18;;;;;;;;;;5067609;28;20778;-14
2022/03/23 02:46:05;;;;;;;12.77;10.68;;;;;;;;;;5069262;28;20237;-13
2022/03/23 02:48:33;;;;;;;13.27;10.68;;;;;;;;;;5067907;28;20240;-14
2022/03/23 02:51:05;;;;;;;15.18;11.02;;;;;;;;;;5069233;28;20737;-13
2022/03/23 03:01:54;;;;;;;17.92;11.43;;;;;;;;;;5070989;28;20229;-14
2022/03/23 03:04:22;;;;;;;15.05;10.32;;;;;;;;;;5071378;28;20233;-13
2022/03/23 03:06:49;;;;;;;12.77;10.40;;;;;;;;;;5070288;28;20971;-13
2022/03/23 03:09:16;;;;;;;15.00;11.18;;;;;;;;;;5070845;28;20239;-13
2022/03/23 03:11:43;;;;;;;13.32;10.35;;;;;;;;;;5070961;28;20279;-14
2022/03/23 03:14:10;;;;;;;13.80;10.63;;;;;;;;;;5071159;28;20233;-14
2022/03/23 03:16:37;;;;;;;18.67;11.18;;;;;;;;;;5067629;28;20241;-13
2022/03/23 03:19:04;;;;;;;13.60;10.70;;;;;;;;;;5070608;28;20236;-13
2022/03/23 03:21:32;;;;;;;13.00;10.43;;;;;;;;;;5065871;28;20242;-13
2022/03/23 03:23:59;;;;;;;16.13;11.50;;;;;;;;;;5069438;28;21149;-13
2022/03/23 03:26:26;;;;;;;14.15;10.85;;;;;;;;;;5070586;28;20233;-14
2022/03/23 03:28:53;;;;;;;16.65;10.85;;;;;;;;;;5072605;28;20234;-13
2022/03/23 03:31:20;;;;;;;16.90;11.55;;;;;;;;;;5073079;28;20260;-13
2022/03/23 03:33:47;;;;;;;16.13;10.75;;;;;;;;;;5067947;28;20221;-13
2022/03/23 03:36:15;;;;;;;14.82;10.82;;;;;;;;;;5071262;28;20229;-13
2022/03/23 03:38:42;;;;;;;14.13;11.40;;;;;;;;;;5071298;28;20236;-14
2022/03/23 03:41:09;;;;;;;14.38;10.98;;;;;;;;;;5072022;28;20225;-13
2022/03/23 03:43:36;;;;;;;14.23;11.07;;;;;;;;;;5071242;28;20225;-13
2022/03/23 03:46:06;;;;;;;14.50;11.05;;;;;;;;;;5072029;28;20719;-14
2022/03/23 03:48:33;;;;;;;15.60;10.95;;;;;;;;;;5074425;28;20279;-13
2022/03/23 03:51:00;;;;;;;14.93;11.65;;;;;;;;;;5073692;28;20229;-13
2022/03/23 03:53:27;;;;;;;14.43;11.02;;;;;;;;;;5071354;28;20235;-13
2022/03/23 03:56:05;;;;;;;14.98;10.63;;;;;;;;;;5074140;28;20241;-14
2022/03/23 03:58:32;;;;;;;15.05;10.93;;;;;;;;;;5071530;28;20712;-13
2022/03/23 04:00:59;;;;;;;15.43;11.55;;;;;;;;;;5073013;28;20971;-14
2022/03/23 04:03:26;;;;;;;14.93;11.27;;;;;;;;;;5071366;28;20225;-14
2022/03/23 04:05:53;;;;;;;14.90;10.85;;;;;;;;;;5073260;28;20231;-14
2022/03/23 04:08:20;;;;;;;16.08;10.68;;;;;;;;;;5073142;28;20233;-13
2022/03/23 04:10:47;;;;;;;12.35;10.35;;;;;;;;;;5074003;28;20225;-13
2022/03/23 04:13:14;;;;;;;14.38;10.45;;;;;;;;;;5070493;28;20240;-13
2022/03/23 04:15:41;;;;;;;15.32;10.52;;;;;;;;;;5074088;28;20229;-13
2022/03/23 04:18:08;;;;;;;12.95;11.02;;;;;;;;;;5071813;28;21086;-14
2022/03/23 04:20:35;;;;;;;12.43;10.68;;;;;;;;;;5073948;28;20226;-13
2022/03/23 04:23:02;;;;;;;13.25;10.43;;;;;;;;;;5072466;28;20237;-13
2022/03/23 04:25:29;;;;;;;15.40;10.45;;;;;;;;;;5070855;28;20229;-14
2022/03/23 04:27:56;;;;;;;15.00;11.20;;;;;;;;;;5073964;28;20240;-13
2022/03/23 04:30:23;;;;;;;16.33;11.07;;;;;;;;;;5072493;28;20230;-14
2022/03/23 04:32:50;;;;;;;15.93;11.57;;;;;;;;;;5069914;28;20237;-13
2022/03/23 04:35:17;;;;;;;13.13;10.98;;;;;;;;;;5075309;28;20237;-13
2022/03/23 04:37:44;;;;;;;13.75;11.10;;;;;;;;;;5073383;28;20242;-13
2022/03/23 04:40:11;;;;;;;13.85;11.18;;;;;;;;;;5073463;28;20226;-14
2022/03/23 04:42:38;;;;;;;13.52;10.68;;;;;;;;;;5073235;28;20233;-13
2022/03/23 04:45:05;;;;;;;16.02;10.80;;;;;;;;;;5075423;28;20233;-13
2022/03/23 04:47:33;;;;;;;15.02;11.90;;;;;;;;;;5072387;28;21058;-13
2022/03/23 04:50:00;;;;;;;17.92;10.90;;;;;;;;;;5073064;28;20719;-13
2022/03/23 04:52:27;;;;;;;16.20;10.93;;;;;;;;;;5073463;28;20236;-14
2022/03/23 04:54:56;;;;;;;15.68;10.63;;;;;;;;;;5072997;28;20232;-14
2022/03/23 04:57:23;;;;;;;13.60;10.48;;;;;;;;;;5072265;28;20237;-13
2022/03/23 04:59:51;;;;;;;13.63;10.55;;;;;;;;;;5073477;28;20265;-13
2022/03/23 05:02:18;;;;;;;16.35;11.00;;;;;;;;;;5074176;28;20229;-13
2022/03/23 05:04:45;;;;;;;13.93;10.13;;;;;;;;;;5071150;28;20230;-13
2022/03/23 05:07:12;;;;;;;13.50;10.27;;;;;;;;;;5069785;28;20233;-13
2022/03/23 05:09:39;;;;;;;15.63;11.25;;;;;;;;;;5072710;28;20225;-13
2022/03/23 05:12:06;;;;;;;13.90;10.75;;;;;;;;;;5070040;28;20237;-13
2022/03/23 05:14:34;;;;;;;14.82;10.48;;;;;;;;;;5072754;28;20230;-13
2022/03/23 05:17:01;;;;;;;13.80;10.95;;;;;;;;;;5074035;28;20355;-13
2022/03/23 05:19:28;;;;;;;14.55;10.65;;;;;;;;;;5070712;28;20229;-14
2022/03/23 05:21:55;;;;;;;12.25;10.38;;;;;;;;;;5070577;28;20241;-13
2022/03/23 05:24:22;;;;;;;15.68;11.40;;;;;;;;;;5073001;28;20231;-13
2022/03/23 05:26:49;;;;;;;14.50;10.23;;;;;;;;;;5072790;28;20246;-13
2022/03/23 05:29:16;;;;;;;13.90;10.40;;;;;;;;;;5074727;28;20229;-13
2022/03/23 05:31:43;;;;;;;13.63;10.05;;;;;;;;;;5073304;28;20957;-13
2022/03/23 05:34:10;;;;;;;13.95;10.57;;;;;;;;;;5070165;28;20614;-13
2022/03/23 05:36:37;;;;;;;15.82;10.88;;;;;;;;;;5070210;28;20617;-13
2022/03/23 05:39:04;;;;;;;14.63;11.00;;;;;;;;;;5070073;28;20225;-13
2022/03/23 05:41:31;;;;;;;15.25;10.20;;;;;;;;;;5072560;28;20229;-13
2022/03/23 05:43:58;;;;;;;14.82;10.93;;;;;;;;;;5071425;28;20229;-13
2022/03/23 05:46:25;;;;;;;14.00;10.88;;;;;;;;;;5073212;28;20722;-13
2022/03/23 05:48:53;;;;;;;15.73;10.90;;;;;;;;;;5069605;28;20708;-13
2022/03/23 05:51:19;;;;;;;16.10;11.52;;;;;;;;;;5071673;28;20233;-13
2022/03/23 05:53:47;;;;;;;14.40;10.57;;;;;;;;;;5072561;28;20238;-13
2022/03/23 05:56:14;;;;;;;13.00;10.38;;;;;;;;;;5070902;28;20701;-14
2022/03/23 05:58:41;;;;;;;15.63;11.27;;;;;;;;;;5069452;28;20283;-13
2022/03/23 06:01:08;;;;;;;17.13;11.25;;;;;;;;;;5073012;28;20234;-13
2022/03/23 06:03:35;;;;;;;13.75;11.10;;;;;;;;;;5069008;28;20283;-13
2022/03/23 06:06:03;;;;;;;13.88;10.68;;;;;;;;;;5072250;28;20417;-13
2022/03/23 06:08:30;;;;;;;13.88;11.15;;;;;;;;;;5070392;28;20791;-14
2022/03/23 06:10:58;;;;;;;13.05;10.68;;;;;;;;;;5068922;28;20364;-13
2022/03/23 06:13:25;;;;;;;14.90;10.80;;;;;;;;;;5071413;28;20236;-14
2022/03/23 06:15:52;;;;;;;14.30;10.30;;;;;;;;;;5073409;28;20237;-13
2022/03/23 06:18:19;;;;;;;14.00;10.55;;;;;;;;;;5071786;28;20271;-14
2022/03/23 06:20:46;;;;;;;11.98;10.63;;;;;;;;;;5070432;28;20268;-14
2022/03/23 06:23:13;;;;;;;15.25;11.10;;;;;;;;;;5070831;28;20237;-14
2022/03/23 06:25:40;;;;;;;13.82;11.05;;;;;;;;;;5069639;28;20821;-14
2022/03/23 06:28:07;;;;;;;13.25;10.50;;;;;;;;;;5071538;28;20225;-14
2022/03/23 06:30:34;;;;;;;14.10;10.95;;;;;;;;;;5073349;28;20232;-13
2022/03/23 06:33:01;;;;;;;13.32;10.15;;;;;;;;;;5069328;28;20283;-13
2022/03/23 06:35:29;;;;;;;14.48;10.57;;;;;;;;;;5070301;28;20240;-13
2022/03/23 06:37:56;;;;;;;13.77;10.63;;;;;;;;;;5071285;28;20988;-13
2022/03/23 06:40:24;;;;;;;14.13;11.18;;;;;;;;;;5070645;28;20671;-14
2022/03/23 06:42:51;;;;;;;13.57;10.60;;;;;;;;;;5070461;28;20248;-14
2022/03/23 06:45:18;;;;;;;15.13;11.50;;;;;;;;;;5071108;28;20235;-13
2022/03/23 06:47:45;;;;;;;14.70;11.05;;;;;;;;;;5071649;28;20228;-14
2022/03/23 06:50:12;;;;;;;13.25;10.32;;;;;;;;;;5071403;28;20230;-14
2022/03/23 06:52:39;;;;;;;15.32;11.02;;;;;;;;;;5071383;28;20708;-13
2022/03/23 06:55:06;;;;;;;14.30;10.57;;;;;;;;;;5066039;28;20244;-14
2022/03/23 06:57:33;;;;;;;13.73;9.98;;;;;;;;;;5070436;28;20958;-13
2022/03/23 07:00:01;;;;;;;14.07;9.93;;;;;;;;;;5068248;28;20653;-13
2022/03/23 07:02:28;;;;;;;14.18;9.30;;;;;;;;;;5073061;28;20233;-13
2022/03/23 07:04:55;;;;;;;12.02;9.50;;;;;;;;;;5071773;28;20242;-13
2022/03/23 07:07:22;;;;;;;12.30;10.07;;;;;;;;;;5070354;28;20231;-13
2022/03/23 07:09:49;;;;;;;11.18;9.15;;;;;;;;;;5069339;28;20252;-13
2022/03/23 07:12:18;;;;;;;10.80;9.13;;;;;;;;;;5071171;28;20236;-13
2022/03/23 07:14:45;;;;;;;13.60;9.32;;;;;;;;;;5071364;28;20233;-13
2022/03/23 07:17:12;;;;;;;12.02;9.50;;;;;;;;;;5073031;28;20237;-13
2022/03/23 07:19:39;;;;;;;12.45;8.98;;;;;;;;;;5066296;28;20226;-13
2022/03/23 07:22:06;;;;;;;10.98;9.45;;;;;;;;;;5070680;28;20276;-13
2022/03/23 07:24:33;;;;;;;11.15;9.27;;;;;;;;;;5070735;28;20229;-13
2022/03/23 07:27:05;;;;;;;10.00;9.00;;;;;;;;;;5071062;28;20279;-13
2022/03/23 07:29:45;;;;;;;12.50;9.45;;;;;;;;;;5070403;28;20240;-14
2022/03/23 07:32:12;;;;;;;11.18;8.52;;;;;;;;;;5072409;28;20239;-13
2022/03/23 07:34:39;;;;;;;10.98;9.02;;;;;;;;;;5069721;28;20324;-14
2022/03/23 07:37:06;;;;;;;12.48;9.18;;;;;;;;;;5068160;28;20233;-14
2022/03/23 07:39:33;;;;;;;11.18;8.75;;;;;;;;;;5070667;28;20723;-14
2022/03/23 07:42:02;;;;;;;11.43;8.73;;;;;;;;;;5069660;28;20229;-13
2022/03/23 07:44:29;;;;;;;10.75;9.10;;;;;;;;;;5070228;28;20637;-13
2022/03/23 07:46:56;;;;;;;12.52;9.13;;;;;;;;;;5070290;28;20818;-13
2022/03/23 07:49:23;;;;;;;14.13;10.00;;;;;;;;;;5069529;28;20739;-13
2022/03/23 07:51:50;;;;;;;9.68;8.60;;;;;;;;;;5067924;28;20316;-13
2022/03/23 07:54:17;;;;;;;11.13;8.80;;;;;;;;;;5054773;28;20230;-13
2022/03/23 07:56:44;;;;;;;12.65;8.98;;;;;;;;;;5055899;28;20229;-13
2022/03/23 07:59:11;;;;;;;10.52;8.88;;;;;;;;;;5065945;28;20717;-13
2022/03/23 08:01:38;;;;;;;11.05;8.10;;;;;;;;;;5073050;28;20637;-13
2022/03/23 08:04:06;;;;;;;11.45;8.95;;;;;;;;;;5067080;28;20234;-13
2022/03/23 08:06:35;;;;;;;12.15;9.23;;;;;;;;;;5070440;28;20229;-13
2022/03/23 08:09:02;;;;;;;10.60;8.65;;;;;;;;;;5069873;28;20320;-14
2022/03/23 08:11:29;;;;;;;16.60;9.52;;;;;;;;;;5070409;28;20225;-13
2022/03/23 08:13:56;;;;;;;14.48;8.80;;;;;;;;;;5069064;28;20307;-13
2022/03/23 08:16:24;;;;;;;14.27;9.15;;;;;;;;;;5072864;28;20229;-14
2022/03/23 08:18:54;;;;;;;11.05;9.30;;;;;;;;;;5070868;28;20234;-14
2022/03/23 08:21:21;;;;;;;17.90;9.15;;;;;;;;;;5071838;28;21018;-13
2022/03/23 08:23:48;;;;;;;10.30;8.13;;;;;;;;;;5071436;28;20295;-13
2022/03/23 08:26:15;;;;;;;15.57;9.55;;;;;;;;;;5074297;28;20237;-13
2022/03/23 08:28:42;;;;;;;17.13;9.45;;;;;;;;;;5074372;28;20233;-13
2022/03/23 08:31:09;;;;;;;12.45;9.77;;;;;;;;;;5070603;28;20933;-13
2022/03/23 08:33:36;;;;;;;17.50;9.60;;;;;;;;;;5073199;28;20233;-13
2022/03/23 08:36:03;;;;;;;16.30;10.00;;;;;;;;;;5073083;28;20269;-13
2022/03/23 08:38:30;;;;;;;12.65;8.93;;;;;;;;;;5072823;28;20244;-13
2022/03/23 08:40:57;;;;;;;12.48;9.52;;;;;;;;;;5067834;28;20264;-14
2022/03/23 08:43:24;;;;;;;13.35;9.15;;;;;;;;;;5073445;28;20244;-13
2022/03/23 08:45:51;;;;;;;12.25;9.48;;;;;;;;;;5074149;28;20241;-13
2022/03/23 08:48:18;;;;;;;15.55;10.77;;;;;;;;;;5073063;28;20606;-13
2022/03/23 08:50:45;;;;;;;18.05;9.50;;;;;;;;;;5073149;28;20708;-13
2022/03/23 08:53:12;;;;;;;13.65;8.95;;;;;;;;;;5073069;28;20701;-13
2022/03/23 08:55:40;;;;;;;11.05;8.88;;;;;;;;;;5071280;28;20696;-13
2022/03/23 08:58:07;;;;;;;12.80;8.90;;;;;;;;;;5073100;28;20237;-13
2022/03/23 09:00:34;;;;;;;14.32;8.73;;;;;;;;;;5073420;28;20966;-13
2022/03/23 09:03:01;;;;;;;13.75;8.90;;;;;;;;;;5072974;28;20716;-14
2022/03/23 09:05:29;;;;;;;14.07;8.55;;;;;;;;;;5072936;28;20723;-13
2022/03/23 09:07:56;;;;;;;22.87;9.20;;;;;;;;;;5072988;28;20432;-13
2022/03/23 09:10:23;;;;;;;20.73;11.93;;;;;;;;;;5070659;28;20413;-13
2022/03/23 09:12:50;;;;;;;15.75;9.65;;;;;;;;;;5065412;28;21090;-13
2022/03/23 09:15:17;;;;;;;21.95;9.40;;;;;;;;;;5056706;28;20767;-13
2022/03/23 09:17:44;;;;;;;23.15;11.25;;;;;;;;;;5093234;28;20431;-13
2022/03/23 09:20:12;;;;;;;25.85;11.73;;;;;;;;;;5064075;28;20414;-13
2022/03/23 09:22:39;;;;;;;22.65;14.50;;;;;;;;;;5054084;28;20336;-13
2022/03/23 09:25:06;;;;;;;21.08;16.20;;;;;;;;;;5072779;28;20237;-13
2022/03/23 09:27:34;;;;;;;21.00;14.67;;;;;;;;;;5069027;28;20425;-13
2022/03/23 09:30:01;;;;;;;18.15;12.57;;;;;;;;;;5070405;28;20233;-14
2022/03/23 09:32:28;;;;;;;19.98;12.10;;;;;;;;;;5070812;28;20236;-14
2022/03/23 09:34:55;;;;;;;19.05;11.98;;;;;;;;;;5072131;28;20553;-14
2022/03/23 09:40:08;;;;;;;19.48;13.25;;;;;;;;;;5072314;28;20252;-14
2022/03/23 09:42:35;;;;;;;24.92;14.98;;;;;;;;;;5067920;28;20267;-13
2022/03/23 09:45:02;;;;;;;21.05;15.02;;;;;;;;;;5068810;28;20237;-14
2022/03/23 09:47:29;;;;;;;21.85;12.77;;;;;;;;;;5063937;28;20225;-13
2022/03/23 09:49:56;;;;;;;20.85;12.55;;;;;;;;;;5072097;28;20229;-14
2022/03/23 09:52:23;;;;;;;19.88;13.00;;;;;;;;;;5071674;28;20244;-14
2022/03/23 09:54:54;;;;;;;17.48;12.10;;;;;;;;;;5070280;28;20688;-13
2022/03/23 09:57:21;;;;;;;18.80;12.00;;;;;;;;;;5069688;28;21060;-12
2022/03/23 09:59:48;;;;;;;17.80;11.98;;;;;;;;;;5071276;28;20236;-13
2022/03/23 10:02:36;;;;;;;17.77;11.95;;;;;;;;;;5069552;28;20233;-14
2022/03/23 10:05:03;;;;;;;22.08;12.13;;;;;;;;;;5070976;28;20321;-14
2022/03/23 10:07:30;;;;;;;23.13;14.82;;;;;;;;;;5069352;28;20262;-14
2022/03/23 10:09:57;;;;;;;26.67;18.57;;;;;;;;;;5070575;28;20416;-13
2022/03/23 10:12:24;;;;;;;25.15;16.83;;;;;;;;;;5069404;28;20229;-14
2022/03/23 10:14:51;;;;;;;26.30;16.00;;;;;;;;;;5071368;28;20240;-14
2022/03/23 10:17:18;;;;;;;20.95;14.90;;;;;;;;;;5090501;28;20213;-14
2022/03/23 10:19:45;;;;;;;20.95;14.77;;;;;;;;;;5080825;28;20230;-14
2022/03/23 10:22:12;;;;;;;21.50;13.98;;;;;;;;;;5071847;28;20253;-14
2022/03/23 10:24:39;;;;;;;19.15;15.10;;;;;;;;;;5072230;28;20216;-14
2022/03/23 10:27:06;;;;;;;19.88;13.88;;;;;;;;;;5088037;28;20233;-14
2022/03/23 10:29:34;;;;;;;21.27;14.27;;;;;;;;;;5092112;28;20223;-13
2022/03/23 10:32:01;;;;;;;16.23;12.75;;;;;;;;;;5076215;28;20221;-13
2022/03/23 10:34:29;;;;;;;18.10;12.57;;;;;;;;;;5071809;28;20644;-14
2022/03/23 10:36:56;;;;;;;18.98;12.43;;;;;;;;;;5064657;28;20585;-14
2022/03/23 10:39:23;;;;;;;17.10;12.55;;;;;;;;;;5051493;28;20590;-14
2022/03/23 10:41:50;;;;;;;15.77;11.57;;;;;;;;;;5051053;28;20725;-14
2022/03/23 10:44:17;;;;;;;18.02;12.18;;;;;;;;;;5066217;28;20917;-14
2022/03/23 10:46:44;;;;;;;15.50;11.13;;;;;;;;;;5085821;28;20224;-14
2022/03/23 10:49:11;;;;;;;14.73;11.05;;;;;;;;;;5074078;28;20235;-14
2022/03/23 10:51:39;;;;;;;22.13;11.55;;;;;;;;;;5071994;28;20221;-14
2022/03/23 10:54:05;;;;;;;15.40;11.25;;;;;;;;;;5071855;28;20228;-14
2022/03/23 10:56:32;;;;;;;16.02;10.55;;;;;;;;;;5071231;28;20217;-14
2022/03/23 10:58:59;;;;;;;13.75;10.35;;;;;;;;;;5071202;28;20272;-14
2022/03/23 11:01:26;;;;;;;14.63;9.93;;;;;;;;;;5083396;28;20304;-14
2022/03/23 11:03:54;;;;;;;11.57;9.43;;;;;;;;;;5092210;28;20312;-14
2022/03/23 11:06:21;;;;;;;12.07;9.68;;;;;;;;;;5092022;28;20212;-14
2022/03/23 11:08:48;;;;;;;12.85;9.35;;;;;;;;;;5059917;28;20284;-14
2022/03/23 11:16:47;;;;;;;14.38;10.35;;;;;;;;;;5058823;28;20269;-14
2022/03/23 11:19:14;;;;;;;11.05;9.43;;;;;;;;;;5051480;28;20234;-14
2022/03/23 11:21:41;;;;;;;12.07;9.18;;;;;;;;;;5063229;28;21353;-14
2022/03/23 11:24:09;;;;;;;11.30;9.07;;;;;;;;;;5071801;28;20315;-14
2022/03/23 11:26:36;;;;;;;12.95;9.18;;;;;;;;;;5060565;28;21611;-14
2022/03/23 11:29:03;;;;;;;12.60;9.70;;;;;;;;;;5051645;28;20698;-14
2022/03/23 11:31:30;;;;;;;11.55;9.23;;;;;;;;;;5071260;28;21118;-14
2022/03/23 11:33:58;;;;;;;12.40;8.82;;;;;;;;;;5071806;28;20212;-14
2022/03/23 11:36:25;;;;;;;12.23;8.60;;;;;;;;;;5071463;28;20673;-14
2022/03/23 11:38:52;;;;;;;11.25;8.50;;;;;;;;;;5070583;28;20253;-13
2022/03/23 11:41:19;;;;;;;11.02;8.07;;;;;;;;;;5071263;28;20271;-13
2022/03/23 11:43:46;;;;;;;10.57;8.20;;;;;;;;;;5070785;28;20720;-13
2022/03/23 11:46:15;;;;;;;10.20;8.70;;;;;;;;;;5081251;28;20319;-14
2022/03/23 11:48:42;;;;;;;11.15;9.05;;;;;;;;;;5091720;28;20236;-14
2022/03/23 11:51:09;;;;;;;10.55;7.95;;;;;;;;;;5075383;28;20342;-14
2022/03/23 11:53:36;;;;;;;10.68;8.27;;;;;;;;;;5070966;28;20303;-14
2022/03/23 11:56:04;;;;;;;10.82;8.00;;;;;;;;;;5066305;28;20331;-14
2022/03/23 11:58:31;;;;;;;12.25;7.88;;;;;;;;;;5058919;28;20237;-14
2022/03/23 12:00:58;;;;;;;11.75;8.48;;;;;;;;;;5075287;28;20234;-14
2022/03/23 12:03:26;;;;;;;11.43;7.80;;;;;;;;;;5060955;28;20232;-14
2022/03/23 12:05:53;;;;;;;13.00;9.85;;;;;;;;;;5072615;28;20449;-14
2022/03/23 12:08:21;;;;;;;10.67;8.73;;;;;;;;;;5074571;28;20479;-14
2022/03/23 12:10:48;;;;;;;12.00;9.23;;;;;;;;;;5074673;28;20245;-15
2022/03/23 12:13:15;;;;;;;11.88;8.70;;;;;;;;;;5073924;28;20253;-14
2022/03/23 12:15:42;;;;;;;15.13;9.40;;;;;;;;;;5072049;28;20903;-14
2022/03/23 12:18:13;;;;;;;12.00;8.40;;;;;;;;;;5074272;28;20243;-14
2022/03/23 12:20:41;;;;;;;12.30;8.40;;;;;;;;;;5070915;28;20272;-14
2022/03/23 12:23:08;;;;;;;14.70;8.00;;;;;;;;;;5073693;28;20288;-14
2022/03/23 12:25:36;;;;;;;11.52;8.55;;;;;;;;;;5074400;28;20315;-13
2022/03/23 12:28:03;;;;;;;10.02;7.55;;;;;;;;;;5073790;28;20310;-14
2022/03/23 12:30:30;;;;;;;15.73;9.25;;;;;;;;;;5070893;28;20234;-14
2022/03/23 12:32:57;;;;;;;23.05;10.25;;;;;;;;;;5054057;28;20261;-14
2022/03/23 12:35:24;;;;;;;15.30;10.45;;;;;;;;;;5064692;28;20454;-13
2022/03/23 12:37:51;;;;;;;17.75;9.27;;;;;;;;;;5062175;28;20233;-14
2022/03/23 12:40:18;;;;;;;14.02;9.68;;;;;;;;;;5064283;28;20308;-14
2022/03/23 12:42:45;;;;;;;20.35;11.20;;;;;;;;;;5059597;28;20887;-14
2022/03/23 12:45:13;;;;;;;15.95;10.27;;;;;;;;;;5069073;28;20264;-14
2022/03/23 12:47:40;;;;;;;14.48;10.60;;;;;;;;;;5067174;28;20319;-14
2022/03/23 12:57:49;;;;;;;25.80;10.65;;;;;;;;;;5067309;28;20261;-14
2022/03/23 12:58:42;;;;;;;21.52;11.00;;;;;;;;;;5063771;28;21646;-14
2022/03/23 13:01:09;;;;;;;14.57;9.07;;;;;;;;;;5067368;28;20675;-13
2022/03/23 13:03:43;;;;;;;21.27;9.60;;;;;;;;;;5066567;28;20268;-14
2022/03/23 13:06:10;;;;;;;15.77;9.73;;;;;;;;;;5069093;28;20225;-14
2022/03/23 13:08:50;;;;;;;16.35;8.68;;;;;;;;;;5066523;28;20311;-14
2022/03/23 13:11:17;;;;;;;18.13;9.13;;;;;;;;;;5064494;28;20284;-14
2022/03/23 13:13:44;;;;;;;17.23;8.88;;;;;;;;;;5066759;28;20261;-14
2022/03/23 13:16:11;;;;;;;18.08;8.20;;;;;;;;;;5070285;28;20477;-14
2022/03/23 13:18:39;;;;;;;11.18;8.70;;;;;;;;;;5066038;28;20248;-13
2022/03/23 13:21:06;;;;;;;22.75;8.07;;;;;;;;;;5058723;28;20324;-13
2022/03/23 13:23:34;;;;;;;12.48;8.30;;;;;;;;;;5068290;28;20237;-13
2022/03/23 13:26:02;;;;;;;10.40;7.38;;;;;;;;;;5068427;28;20264;-14
2022/03/23 13:28:29;;;;;;;10.45;7.32;;;;;;;;;;5068641;28;20312;-14
2022/03/23 13:30:56;;;;;;;14.38;7.30;;;;;;;;;;5065977;28;20324;-14
2022/03/23 13:33:23;;;;;;;25.95;7.70;;;;;;;;;;5067727;28;20528;-15
2022/03/23 13:35:51;;;;;;;14.38;7.38;;;;;;;;;;5066505;28;20550;-14
2022/03/23 13:38:18;;;;;;;18.98;9.05;;;;;;;;;;5067411;28;20436;-13
2022/03/23 13:43:32;;;;;;;19.10;9.10;;;;;;;;;;5058900;28;20671;-14
2022/03/23 13:46:00;;;;;;;19.00;8.75;;;;;;;;;;5064359;28;20336;-14
2022/03/23 13:48:30;;;;;;;15.05;7.97;;;;;;;;;;5064678;28;21019;-13
2022/03/23 13:50:58;;;;;;;10.38;7.70;;;;;;;;;;5063218;28;20486;-14
2022/03/23 13:53:25;;;;;;;15.75;7.95;;;;;;;;;;5069384;28;20314;-14
2022/03/23 13:55:53;;;;;;;11.63;8.02;;;;;;;;;;5065904;28;20225;-15
2022/03/23 13:58:20;;;;;;;10.95;7.63;;;;;;;;;;5063157;28;20320;-14
2022/03/23 14:00:54;;;;;;;11.27;7.63;;;;;;;;;;5067478;28;20272;-14
2022/03/23 14:03:30;;;;;;;10.85;7.57;;;;;;;;;;5067223;28;20774;-14
2022/03/23 14:05:57;;;;;;;10.82;7.82;;;;;;;;;;5067701;28;20229;-14
2022/03/23 14:08:24;;;;;;;15.68;8.82;;;;;;;;;;5068606;28;20324;-15
2022/03/23 14:10:52;;;;;;;11.57;8.27;;;;;;;;;;5068009;28;20239;-14
2022/03/23 14:13:19;;;;;;;12.05;7.40;;;;;;;;;;5066395;28;20716;-14
2022/03/23 14:15:46;;;;;;;11.70;8.00;;;;;;;;;;5069561;28;20264;-14
2022/03/23 14:18:13;;;;;;;13.48;8.07;;;;;;;;;;5066879;28;20225;-15
2022/03/23 14:20:50;;;;;;;13.40;8.63;;;;;;;;;;5066967;28;20336;-14
2022/03/23 14:23:17;;;;;;;12.40;7.97;;;;;;;;;;5067231;28;21056;-13
2022/03/23 14:25:45;;;;;;;11.40;7.65;;;;;;;;;;5065828;28;20253;-13
2022/03/23 14:28:12;;;;;;;12.65;8.63;;;;;;;;;;5062106;28;20665;-14
2022/03/23 14:30:40;;;;;;;11.73;8.23;;;;;;;;;;5065012;28;20268;-14
2022/03/23 14:33:08;;;;;;;9.45;7.40;;;;;;;;;;5067648;28;20229;-14
2022/03/23 14:35:38;;;;;;;16.67;8.05;;;;;;;;;;5062291;28;20271;-14
2022/03/23 14:38:05;;;;;;;11.52;8.02;;;;;;;;;;5062190;28;20360;-13
2022/03/23 14:40:32;;;;;;;11.30;8.23;;;;;;;;;;5066074;28;20312;-13
2022/03/23 14:42:59;;;;;;;19.48;8.70;;;;;;;;;;5068010;28;20321;-13
2022/03/23 14:45:30;;;;;;;13.98;7.75;;;;;;;;;;5069126;28;20510;-13
2022/03/23 14:48:04;;;;;;;19.10;8.35;;;;;;;;;;5066823;28;20995;-14
2022/03/23 14:50:31;;;;;;;15.80;8.30;;;;;;;;;;5066382;28;20457;-13